Time;durP1;ratioP1;P1;durP2;ratioP2;P2;SDS_P1;SDS_P2;PMS_P1;PMS_P2;Temp;Humidity;BMP_temperature;BMP_pressure;BME280_temperature;BME280_humidity;BME280_pressure;Samples;Min_cycle;Max_cycle;Signal;HPM_P1;HPM_P2
2023/06/27 00:01:21;;;;;;;4.68;1.90;;;;;;;21.47;49.61;96980.22;4998391;28;21094;-66
2023/06/27 00:03:51;;;;;;;5.85;2.20;;;;;;;21.48;49.88;96979.78;5002490;28;20042;-65
2023/06/27 00:06:22;;;;;;;4.85;2.20;;;;;;;21.47;49.91;96978.22;4997625;28;20049;-66
2023/06/27 00:08:49;;;;;;;3.40;1.83;;;;;;;21.50;49.74;96982.13;5002847;28;20038;-65
2023/06/27 00:11:15;;;;;;;5.80;1.95;;;;;;;21.41;49.56;96982.72;4992256;28;20050;-67
2023/06/27 00:13:41;;;;;;;8.00;1.95;;;;;;;21.32;50.00;96985.28;4983336;28;20093;-62
2023/06/27 00:16:12;;;;;;;3.83;1.77;;;;;;;21.31;50.17;96983.72;4978187;28;20042;-67
2023/06/27 00:18:47;;;;;;;8.70;2.08;;;;;;;21.32;49.77;96993.63;4983482;28;20043;-69
2023/06/27 00:21:17;;;;;;;4.35;1.92;;;;;;;21.31;49.87;96992.84;4960778;28;20495;-70
2023/06/27 00:23:43;;;;;;;10.55;2.05;;;;;;;21.15;50.12;96993.59;4982717;28;20400;-69
2023/06/27 00:26:10;;;;;;;4.15;1.70;;;;;;;21.15;49.71;96990.81;4983664;28;20043;-69
2023/06/27 00:28:35;;;;;;;8.50;2.17;;;;;;;21.15;49.63;96993.59;4992886;28;20042;-69
2023/06/27 00:31:01;;;;;;;8.82;1.80;;;;;;;21.23;49.54;96997.03;4992970;28;20542;-68
2023/06/27 00:33:27;;;;;;;5.93;1.65;;;;;;;21.19;49.75;96999.88;4988299;28;20042;-69
2023/06/27 00:35:52;;;;;;;2.72;1.60;;;;;;;21.19;49.51;97007.44;4969014;28;20077;-70
2023/06/27 00:38:18;;;;;;;10.05;1.80;;;;;;;21.07;49.78;97006.09;4979768;28;20042;-68
2023/06/27 00:40:43;;;;;;;7.70;1.85;;;;;;;21.01;50.44;97002.22;4986177;28;20500;-69
2023/06/27 00:43:09;;;;;;;4.70;1.60;;;;;;;21.01;50.75;96999.44;4978363;28;20053;-66
2023/06/27 00:45:34;;;;;;;5.85;1.70;;;;;;;20.93;50.84;97001.59;4982220;28;20101;-68
2023/06/27 00:48:00;;;;;;;7.00;2.03;;;;;;;20.91;50.77;97001.25;4981085;28;20082;-67
2023/06/27 00:50:27;;;;;;;9.20;2.33;;;;;;;20.89;51.18;97009.25;4964264;28;20102;-67
2023/06/27 00:52:54;;;;;;;5.10;1.88;;;;;;;20.77;51.21;97004.31;4983635;28;20125;-69
2023/06/27 00:55:20;;;;;;;5.40;1.75;;;;;;;20.89;51.01;97014.81;4993593;28;20125;-67
2023/06/27 00:57:46;;;;;;;10.38;2.13;;;;;;;20.90;50.96;97005.22;5001446;28;20058;-67
2023/06/27 01:00:15;;;;;;;7.65;2.08;;;;;;;20.77;51.21;96998.75;4979081;28;20538;-69
2023/06/27 01:02:42;;;;;;;5.90;1.98;;;;;;;20.79;51.32;96999.09;5002150;28;20422;-68
2023/06/27 01:05:09;;;;;;;7.72;2.15;;;;;;;20.77;51.50;97007.09;4997500;28;20042;-67
2023/06/27 01:07:42;;;;;;;6.45;2.08;;;;;;;20.75;51.38;97007.50;5002000;28;20041;-69
2023/06/27 01:10:15;;;;;;;7.68;2.15;;;;;;;20.71;51.65;97008.81;4980072;28;20048;-68
2023/06/27 01:13:07;;;;;;;6.35;2.10;;;;;;;20.53;52.08;97003.53;5001917;28;20052;-68
2023/06/27 01:15:35;;;;;;;5.85;2.15;;;;;;;20.35;53.15;97007.44;4992829;28;20403;-69
2023/06/27 01:18:00;;;;;;;5.15;1.80;;;;;;;20.38;53.01;97005.78;5002685;28;20041;-68
2023/06/27 01:20:27;;;;;;;3.67;1.55;;;;;;;20.42;53.24;97009.31;4996941;28;20050;-67
2023/06/27 01:23:14;;;;;;;4.28;1.80;;;;;;;20.47;52.51;97000.44;5001843;28;20042;-67
2023/06/27 01:25:40;;;;;;;6.07;2.38;;;;;;;20.45;52.17;97011.22;5002208;28;20038;-69
2023/06/27 01:28:07;;;;;;;7.93;2.00;;;;;;;20.36;52.47;97011.00;4996725;28;20125;-68
2023/06/27 01:30:34;;;;;;;8.30;2.03;;;;;;;20.40;52.42;97014.47;5002201;28;20068;-67
2023/06/27 01:33:16;;;;;;;5.07;1.88;;;;;;;20.22;52.82;97004.47;5002143;28;20038;-70
2023/06/27 01:36:04;;;;;;;8.68;2.17;;;;;;;20.00;53.74;96998.47;5000848;28;20076;-67
2023/06/27 01:38:46;;;;;;;5.88;1.80;;;;;;;20.01;53.84;97002.03;4984209;28;20042;-69
2023/06/27 01:41:17;;;;;;;6.60;1.95;;;;;;;20.10;53.93;96995.94;5000621;28;20053;-69
2023/06/27 01:43:45;;;;;;;6.93;1.95;;;;;;;20.17;53.39;96996.59;5006140;28;20115;-67
2023/06/27 01:46:11;;;;;;;8.30;2.08;;;;;;;20.29;52.91;97002.75;4987401;28;20042;-69
2023/06/27 01:48:40;;;;;;;6.63;2.00;;;;;;;20.36;52.92;97008.97;4986385;28;20383;-69
2023/06/27 01:51:09;;;;;;;5.93;1.70;;;;;;;20.34;53.24;97014.19;4980226;28;20042;-67
2023/06/27 01:53:35;;;;;;;5.57;1.80;;;;;;;20.34;53.14;97002.28;4993117;28;20042;-69
2023/06/27 01:56:01;;;;;;;5.63;1.75;;;;;;;20.23;53.38;97002.47;4986693;28;20042;-69
2023/06/27 01:58:27;;;;;;;5.13;1.35;;;;;;;20.18;53.83;97000.94;4980409;28;20053;-70
2023/06/27 02:00:52;;;;;;;5.30;1.70;;;;;;;20.20;53.66;97001.34;4985477;28;20415;-69
2023/06/27 02:03:18;;;;;;;4.78;1.75;;;;;;;20.22;53.43;97003.66;4980356;28;20061;-70
2023/06/27 02:05:43;;;;;;;7.10;1.90;;;;;;;20.11;53.74;97001.06;4985223;28;20124;-67
2023/06/27 02:08:09;;;;;;;8.57;2.00;;;;;;;20.12;53.92;96997.09;4980487;28;20050;-66
2023/06/27 02:10:34;;;;;;;5.60;1.67;;;;;;;20.02;54.13;96995.25;4985946;28;20074;-68
2023/06/27 02:13:03;;;;;;;5.82;1.80;;;;;;;20.01;54.57;96996.50;4985679;28;20053;-66
2023/06/27 02:15:29;;;;;;;3.80;1.70;;;;;;;19.97;54.63;97002.09;4984599;28;20053;-68
2023/06/27 02:17:54;;;;;;;8.90;1.70;;;;;;;19.92;54.76;96996.25;4989179;28;20290;-66
2023/06/27 02:20:19;;;;;;;8.75;1.73;;;;;;;19.94;54.73;97002.16;4984199;28;20182;-67
2023/06/27 02:22:45;;;;;;;5.57;1.73;;;;;;;19.91;54.97;97003.00;4985248;28;20073;-68
2023/06/27 02:25:10;;;;;;;6.72;1.63;;;;;;;20.05;54.28;97000.75;4981140;28;20042;-66
2023/06/27 02:27:35;;;;;;;6.53;1.70;;;;;;;20.02;54.01;96998.03;4967418;28;20141;-70
2023/06/27 02:30:01;;;;;;;7.80;1.77;;;;;;;19.88;54.64;97006.59;4985065;28;20120;-70
2023/06/27 02:32:27;;;;;;;4.97;1.50;;;;;;;19.88;54.33;96996.31;4980980;28;20117;-69
2023/06/27 02:34:52;;;;;;;8.32;1.88;;;;;;;19.86;55.16;96993.13;4985671;28;20052;-69
2023/06/27 02:37:18;;;;;;;4.38;2.00;;;;;;;19.85;54.77;96992.34;4980235;28;20542;-70
2023/06/27 02:39:43;;;;;;;6.95;2.35;;;;;;;19.74;55.34;96996.53;4984664;28;20069;-69
2023/06/27 02:42:08;;;;;;;8.32;2.15;;;;;;;19.71;55.44;96995.31;4979274;28;20042;-67
2023/06/27 02:44:34;;;;;;;6.85;1.73;;;;;;;19.72;55.44;96993.34;4984388;28;20675;-69
2023/06/27 02:46:59;;;;;;;4.45;1.52;;;;;;;19.62;55.91;96998.63;4984526;28;20109;-69
2023/06/27 02:49:24;;;;;;;5.25;1.73;;;;;;;19.51;56.18;96995.22;4979661;28;20038;-69
2023/06/27 02:51:50;;;;;;;7.35;1.85;;;;;;;19.61;56.08;96994.28;4983196;28;20061;-67
2023/06/27 02:54:15;;;;;;;5.55;1.90;;;;;;;19.54;56.51;96994.38;4977245;28;20042;-68
2023/06/27 02:56:41;;;;;;;6.40;1.70;;;;;;;19.59;56.67;96993.94;4985395;28;20046;-69
2023/06/27 02:59:06;;;;;;;5.18;1.65;;;;;;;19.59;56.54;96988.38;4979573;28;20054;-67
2023/06/27 03:01:32;;;;;;;6.63;1.70;;;;;;;19.61;56.56;96991.50;4972677;28;20372;-69
2023/06/27 03:03:57;;;;;;;5.53;2.00;;;;;;;19.52;57.01;96996.81;4967599;28;20039;-70
2023/06/27 03:06:22;;;;;;;7.35;2.10;;;;;;;19.53;57.41;96992.81;4962163;28;20881;-66
2023/06/27 03:08:49;;;;;;;8.50;2.25;;;;;;;19.62;57.16;96995.84;4964908;28;20066;-67
2023/06/27 03:11:14;;;;;;;5.55;1.88;;;;;;;19.59;57.07;97002.25;4960180;28;20082;-67
2023/06/27 03:13:40;;;;;;;7.40;1.77;;;;;;;19.55;56.69;96995.94;4965138;28;20076;-67
2023/06/27 03:16:05;;;;;;;6.45;1.40;;;;;;;19.40;57.06;96994.59;4960113;28;20045;-66
2023/06/27 03:18:30;;;;;;;5.97;1.40;;;;;;;19.45;57.18;96994.13;4965291;28;20039;-64
2023/06/27 03:20:56;;;;;;;7.53;2.10;;;;;;;19.43;57.39;97000.09;4964469;28;20074;-66
2023/06/27 03:23:21;;;;;;;8.05;2.05;;;;;;;19.39;57.67;97001.34;4959705;28;20432;-66
2023/06/27 03:25:47;;;;;;;6.78;1.90;;;;;;;19.36;57.48;96996.63;4964719;28;20039;-66
2023/06/27 03:28:12;;;;;;;7.00;1.92;;;;;;;19.44;57.29;96995.31;4959839;28;20102;-66
2023/06/27 03:30:43;;;;;;;4.80;1.70;;;;;;;19.41;57.10;96996.16;4965812;28;20078;-66
2023/06/27 03:33:10;;;;;;;5.68;1.77;;;;;;;19.33;57.33;97003.03;4960192;28;20042;-70
2023/06/27 03:35:35;;;;;;;8.57;1.85;;;;;;;19.31;57.22;97000.66;4965577;28;20047;-66
2023/06/27 03:38:02;;;;;;;6.07;1.75;;;;;;;19.20;57.17;97002.78;4964593;28;20492;-67
2023/06/27 03:40:27;;;;;;;7.03;1.60;;;;;;;19.28;56.77;97005.06;4960266;28;20050;-66
2023/06/27 03:42:53;;;;;;;3.08;1.40;;;;;;;19.23;57.31;97005.53;4976364;28;20046;-67
2023/06/27 03:45:19;;;;;;;5.60;1.42;;;;;;;19.33;56.77;97008.56;4981943;28;20046;-66
2023/06/27 03:47:45;;;;;;;5.20;1.80;;;;;;;19.27;56.95;97011.81;4966248;28;20403;-69
2023/06/27 03:50:10;;;;;;;4.30;1.90;;;;;;;19.28;57.04;97002.28;4979938;28;20038;-66
2023/06/27 03:52:36;;;;;;;7.50;2.08;;;;;;;19.26;57.07;97015.00;4985273;28;20638;-66
2023/06/27 03:55:01;;;;;;;9.63;2.03;;;;;;;19.25;57.30;97016.22;4995666;28;20053;-67
2023/06/27 03:57:27;;;;;;;9.05;2.00;;;;;;;19.26;57.59;97020.56;4999570;28;20048;-65
2023/06/27 03:59:52;;;;;;;6.07;2.15;;;;;;;19.22;57.77;97014.28;4984987;28;20046;-66
2023/06/27 04:02:17;;;;;;;6.47;2.20;;;;;;;19.19;57.94;97023.44;4977768;28;20136;-67
2023/06/27 04:04:43;;;;;;;5.60;1.90;;;;;;;19.21;57.77;97026.56;4983588;28;20046;-65
2023/06/27 04:07:08;;;;;;;6.55;2.50;;;;;;;19.10;58.44;97021.16;4960448;28;20047;-65
2023/06/27 04:09:34;;;;;;;7.05;2.35;;;;;;;19.12;58.52;97024.28;4964407;28;20046;-65
2023/06/27 04:11:59;;;;;;;3.40;1.67;;;;;;;19.05;58.91;97027.97;4964168;28;20039;-65
2023/06/27 04:14:25;;;;;;;5.50;2.10;;;;;;;19.16;57.92;97024.25;4959348;28;20050;-67
2023/06/27 04:16:51;;;;;;;5.45;2.25;;;;;;;19.13;58.10;97022.31;4946594;28;20047;-65
2023/06/27 04:19:16;;;;;;;9.50;2.10;;;;;;;19.17;58.05;97026.59;4959623;28;20054;-65
2023/06/27 04:21:42;;;;;;;4.43;1.80;;;;;;;19.09;58.03;97016.81;4963568;28;20408;-66
2023/06/27 04:24:07;;;;;;;9.98;2.42;;;;;;;19.13;57.99;97020.31;4959390;28;20140;-64
2023/06/27 04:26:33;;;;;;;4.47;1.83;;;;;;;19.08;58.30;97018.00;4963433;28;20528;-65
2023/06/27 04:28:58;;;;;;;7.20;1.88;;;;;;;19.10;58.36;97021.16;4963437;28;20039;-66
2023/06/27 04:31:25;;;;;;;6.43;1.80;;;;;;;19.13;58.52;97016.78;4958564;28;20458;-66
2023/06/27 04:33:55;;;;;;;8.27;2.00;;;;;;;19.13;58.24;97017.53;4962576;28;20104;-67
2023/06/27 04:36:24;;;;;;;;;;;;;;;19.20;57.91;97016.69;4959770;28;20046;-68
2023/06/27 04:38:50;;;;;;;5.20;1.98;;;;;;;19.20;57.47;97020.22;4971586;28;19918;-66
2023/06/27 04:41:17;;;;;;;8.48;2.15;;;;;;;19.27;57.63;97019.38;4968052;28;20078;-67
2023/06/27 04:43:42;;;;;;;7.38;2.17;;;;;;;19.33;57.08;97026.00;4981861;28;20050;-66
2023/06/27 04:46:08;;;;;;;5.85;2.03;;;;;;;19.41;57.07;97019.19;4985562;28;20046;-66
2023/06/27 04:48:33;;;;;;;6.78;2.30;;;;;;;19.41;57.10;97012.81;4988472;28;20042;-67
2023/06/27 04:50:59;;;;;;;6.03;1.90;;;;;;;19.38;57.28;97017.22;4983912;28;20137;-66
2023/06/27 04:53:25;;;;;;;6.43;1.92;;;;;;;19.43;57.85;97019.53;4983986;28;20080;-67
2023/06/27 04:55:52;;;;;;;10.35;2.25;;;;;;;19.59;57.76;97018.13;4991246;28;20133;-68
2023/06/27 04:58:21;;;;;;;6.90;2.05;;;;;;;19.70;57.97;97031.84;4977409;28;20046;-70
2023/06/27 05:00:47;;;;;;;5.30;1.90;;;;;;;19.88;56.99;97018.53;4964970;28;20074;-69
2023/06/27 05:03:13;;;;;;;6.32;2.05;;;;;;;19.96;56.95;97021.97;4978947;28;20034;-73
2023/06/27 05:05:39;;;;;;;4.25;1.92;;;;;;;20.10;56.35;97024.53;4981777;28;20050;-72
2023/06/27 05:08:04;;;;;;;11.35;2.50;;;;;;;20.23;55.77;97013.59;4979225;28;20045;-67
2023/06/27 05:10:30;;;;;;;5.07;1.65;;;;;;;20.33;55.39;97022.94;4982646;28;20041;-73
2023/06/27 05:12:57;;;;;;;8.38;2.13;;;;;;;20.33;55.63;97028.50;4984544;28;20039;-73
2023/06/27 05:15:22;;;;;;;9.27;2.40;;;;;;;20.37;55.97;97027.25;4983361;28;20073;-73
2023/06/27 05:17:52;;;;;;;5.45;1.98;;;;;;;20.51;55.70;97028.22;4972370;28;20042;-72
2023/06/27 05:20:18;;;;;;;9.00;2.08;;;;;;;20.57;55.06;97020.97;4958337;28;20062;-72
2023/06/27 05:22:44;;;;;;;6.88;1.95;;;;;;;20.85;53.98;97024.44;4948068;28;20283;-72
2023/06/27 05:25:10;;;;;;;7.38;2.25;;;;;;;20.75;53.22;97029.00;4960624;28;20047;-72
2023/06/27 05:27:35;;;;;;;52.28;26.33;;;;;;;20.90;52.41;97021.16;4945882;28;20039;-71
2023/06/27 05:30:01;;;;;;;11.30;3.55;;;;;;;20.89;51.83;97025.94;4946813;28;20497;-71
2023/06/27 05:32:26;;;;;;;9.05;4.15;;;;;;;20.96;51.82;97028.59;4958241;28;20046;-72
2023/06/27 05:34:51;;;;;;;12.95;4.78;;;;;;;21.26;50.71;97026.00;4962772;28;20050;-71
2023/06/27 05:37:17;;;;;;;5.10;2.33;;;;;;;21.19;50.13;97030.53;4957513;28;20126;-72
2023/06/27 05:39:42;;;;;;;10.32;5.13;;;;;;;21.11;50.68;97031.88;4963525;28;20061;-71
2023/06/27 05:42:08;;;;;;;9.68;2.75;;;;;;;20.91;51.24;97025.53;4963257;28;20042;-72
2023/06/27 05:44:33;;;;;;;9.63;3.85;;;;;;;21.06;51.33;97034.38;4981626;28;20487;-71
2023/06/27 05:46:59;;;;;;;17.92;10.02;;;;;;;21.17;51.20;97032.94;4982282;28;20553;-72
2023/06/27 05:49:24;;;;;;;14.55;3.63;;;;;;;21.27;50.42;97030.38;4980552;28;20594;-71
2023/06/27 05:51:50;;;;;;;9.32;2.50;;;;;;;21.18;50.98;97025.38;4965541;28;20039;-72
2023/06/27 05:54:15;;;;;;;14.07;4.05;;;;;;;21.24;50.33;97018.06;4978033;28;20420;-70
2023/06/27 05:56:41;;;;;;;12.90;5.38;;;;;;;21.23;50.49;97032.44;4991644;28;20073;-70
2023/06/27 05:59:08;;;;;;;9.73;3.88;;;;;;;21.24;50.42;97029.22;4996726;28;20046;-70
2023/06/27 06:01:35;;;;;;;9.27;3.88;;;;;;;21.18;51.08;97017.03;4993504;28;20039;-71
2023/06/27 06:04:01;;;;;;;6.75;2.75;;;;;;;21.08;51.98;97018.81;4981406;28;20104;-72
2023/06/27 06:06:27;;;;;;;7.70;1.92;;;;;;;20.84;52.27;97015.31;4959441;28;20109;-71
2023/06/27 06:08:52;;;;;;;8.75;4.18;;;;;;;20.81;53.59;97010.59;4981329;28;20038;-72
2023/06/27 06:11:18;;;;;;;9.50;2.55;;;;;;;20.83;53.56;97010.16;4976350;28;20046;-70
2023/06/27 06:13:43;;;;;;;7.20;2.90;;;;;;;20.79;53.46;97005.44;4981237;28;20045;-71
2023/06/27 06:16:08;;;;;;;5.60;2.70;;;;;;;20.93;53.01;97007.16;4976832;28;20088;-71
2023/06/27 06:18:34;;;;;;;8.45;2.83;;;;;;;20.96;52.95;97013.91;4979942;28;20104;-70
2023/06/27 06:20:59;;;;;;;9.52;2.40;;;;;;;20.91;53.49;97012.38;4980446;28;20045;-72
2023/06/27 06:23:25;;;;;;;7.47;2.13;;;;;;;20.79;53.95;97015.81;4974631;28;20054;-72
2023/06/27 06:25:50;;;;;;;6.50;2.28;;;;;;;20.75;54.20;97015.09;4981580;28;20117;-70
2023/06/27 06:28:15;;;;;;;12.30;2.35;;;;;;;20.64;55.00;97012.50;4979653;28;20038;-72
2023/06/27 06:30:41;;;;;;;10.00;2.65;;;;;;;20.74;54.88;97017.09;4966665;28;20432;-71
2023/06/27 06:33:06;;;;;;;4.95;2.47;;;;;;;20.74;55.90;97017.09;4979121;28;20065;-73
2023/06/27 06:35:31;;;;;;;11.75;2.58;;;;;;;20.71;56.00;97028.28;4983593;28;20050;-72
2023/06/27 06:37:57;;;;;;;6.95;2.50;;;;;;;20.57;57.27;97024.50;4984993;28;20042;-72
2023/06/27 06:40:24;;;;;;;6.10;2.60;;;;;;;20.60;57.07;97022.91;4979041;28;20541;-72
2023/06/27 06:42:49;;;;;;;6.10;2.28;;;;;;;20.51;57.37;97014.28;4984303;28;20043;-72
2023/06/27 06:45:15;;;;;;;6.53;2.70;;;;;;;20.47;57.45;97011.56;4980058;28;20451;-71
2023/06/27 06:47:40;;;;;;;8.32;2.20;;;;;;;20.71;57.01;97015.16;4985962;28;20416;-72
2023/06/27 06:50:06;;;;;;;11.60;3.22;;;;;;;21.00;55.66;97023.72;4984666;28;20034;-72
2023/06/27 06:52:31;;;;;;;9.25;2.70;;;;;;;21.15;55.51;97024.22;4986884;28;20045;-71
2023/06/27 06:54:57;;;;;;;17.30;4.13;;;;;;;21.42;55.08;97023.28;4997414;28;20546;-72
2023/06/27 06:57:22;;;;;;;8.52;2.63;;;;;;;21.87;52.74;97027.50;4984035;28;20592;-72
2023/06/27 06:59:47;;;;;;;9.23;2.33;;;;;;;22.11;51.11;97023.34;4984473;28;20141;-71
2023/06/27 07:02:13;;;;;;;8.35;2.20;;;;;;;22.29;50.12;97019.31;4977812;28;20503;-72
2023/06/27 07:04:38;;;;;;;8.82;2.38;;;;;;;23.05;47.87;97026.53;4966566;28;20419;-72
2023/06/27 07:07:04;;;;;;;10.30;2.00;;;;;;;23.62;46.43;97024.88;4963078;28;20073;-66
2023/06/27 07:09:29;;;;;;;6.30;2.17;;;;;;;24.57;43.56;97032.66;4984642;28;20042;-73
2023/06/27 07:11:54;;;;;;;7.28;3.00;;;;;;;25.25;41.85;97032.31;4984964;28;20077;-72
2023/06/27 07:14:20;;;;;;;4.90;1.80;;;;;;;25.85;40.78;97027.63;4979627;28;20070;-71
2023/06/27 07:16:46;;;;;;;7.32;2.30;;;;;;;26.28;39.67;97023.13;4983886;28;20050;-69
2023/06/27 07:19:11;;;;;;;4.38;1.77;;;;;;;26.81;39.18;97024.94;4979799;28;20046;-71
2023/06/27 07:21:37;;;;;;;6.13;2.03;;;;;;;27.47;37.09;97024.44;4983136;28;20066;-71
2023/06/27 07:24:04;;;;;;;6.28;1.90;;;;;;;26.61;38.50;97016.97;4963024;28;20042;-66
2023/06/27 07:26:30;;;;;;;7.72;1.75;;;;;;;27.01;37.30;97019.66;4983270;28;20046;-72
2023/06/27 07:28:55;;;;;;;8.32;2.42;;;;;;;26.91;36.78;97020.88;4984041;28;20053;-70
2023/06/27 07:31:21;;;;;;;6.68;1.90;;;;;;;27.48;36.30;97019.59;4979101;28;20042;-70
2023/06/27 07:33:46;;;;;;;7.75;1.90;;;;;;;27.34;36.48;97012.59;4983073;28;20162;-69
2023/06/27 07:36:12;;;;;;;4.07;1.70;;;;;;;27.84;34.88;97022.28;4978672;28;20133;-70
2023/06/27 07:38:38;;;;;;;5.68;1.83;;;;;;;27.82;35.09;97018.38;4982166;28;20495;-73
2023/06/27 07:41:03;;;;;;;5.65;1.95;;;;;;;28.47;34.26;97016.06;4979814;28;20043;-67
2023/06/27 07:43:29;;;;;;;6.60;1.95;;;;;;;28.91;32.87;97014.66;4981034;28;20053;-69
2023/06/27 07:45:54;;;;;;;7.90;2.35;;;;;;;29.55;32.02;97014.06;4983287;28;20050;-72
2023/06/27 07:48:19;;;;;;;5.78;1.83;;;;;;;26.08;34.16;97012.31;4979065;28;20046;-72
2023/06/27 07:50:45;;;;;;;4.60;1.58;;;;;;;26.23;35.30;97013.28;4983621;28;20125;-72
2023/06/27 07:53:10;;;;;;;6.93;3.63;;;;;;;27.70;32.62;97013.75;4960592;28;20556;-71
2023/06/27 07:55:36;;;;;;;4.63;1.58;;;;;;;26.25;33.48;97010.81;4991383;28;20038;-71
2023/06/27 07:58:01;;;;;;;5.63;1.90;;;;;;;24.46;37.57;97009.03;5002478;28;20077;-73
2023/06/27 08:00:26;;;;;;;5.78;2.28;;;;;;;26.62;34.21;97012.91;4999042;28;20225;-71
2023/06/27 08:02:52;;;;;;;4.85;2.08;;;;;;;26.26;34.37;97008.78;4977951;28;20049;-72
2023/06/27 08:05:18;;;;;;;5.20;1.77;;;;;;;24.78;36.33;97008.72;4995939;28;20483;-71
2023/06/27 08:07:43;;;;;;;4.65;1.80;;;;;;;23.74;39.22;97006.53;4983150;28;20061;-68
2023/06/27 08:10:11;;;;;;;7.15;2.08;;;;;;;25.38;37.14;96998.59;4966041;28;20498;-72
2023/06/27 08:12:37;;;;;;;6.60;1.80;;;;;;;27.17;34.28;96996.03;5003014;28;20045;-72
2023/06/27 08:15:03;;;;;;;5.25;2.13;;;;;;;27.68;33.14;96994.53;4982232;28;20034;-69
2023/06/27 08:17:28;;;;;;;8.63;2.80;;;;;;;27.88;32.54;96988.34;4980927;28;20126;-70
2023/06/27 08:19:54;;;;;;;5.95;2.30;;;;;;;27.90;32.67;96993.50;4982856;28;20189;-71
2023/06/27 08:22:19;;;;;;;10.60;3.60;;;;;;;28.44;31.57;96993.69;4975600;28;20097;-72
2023/06/27 08:24:45;;;;;;;6.47;1.58;;;;;;;27.35;32.51;96997.28;4981421;28;20053;-71
2023/06/27 08:27:10;;;;;;;6.10;1.83;;;;;;;28.32;31.24;96995.47;4976989;28;20066;-72
2023/06/27 08:29:35;;;;;;;6.65;1.90;;;;;;;28.41;31.69;96989.78;4982361;28;20042;-72
2023/06/27 08:32:01;;;;;;;4.95;1.60;;;;;;;28.59;30.84;96991.72;4981905;28;20042;-72
2023/06/27 08:34:28;;;;;;;5.95;2.10;;;;;;;28.12;32.63;96996.84;4977571;28;20038;-71
2023/06/27 08:36:54;;;;;;;7.60;1.90;;;;;;;28.44;32.25;96988.84;4965134;28;20077;-72
2023/06/27 08:39:19;;;;;;;4.38;1.88;;;;;;;28.72;31.74;96981.00;4977218;28;20500;-71
2023/06/27 08:41:47;;;;;;;6.45;1.80;;;;;;;28.41;31.55;96996.22;4982928;28;20054;-66
2023/06/27 08:44:14;;;;;;;4.95;1.77;;;;;;;28.39;31.08;96995.91;4977236;28;20042;-69
2023/06/27 08:46:40;;;;;;;8.48;2.25;;;;;;;28.56;31.33;97001.16;4964760;28;20045;-73
2023/06/27 08:49:10;;;;;;;4.68;1.80;;;;;;;28.02;32.31;97001.75;4978002;28;20038;-70
2023/06/27 08:51:38;;;;;;;4.20;1.73;;;;;;;27.80;32.60;96999.19;4982478;28;20056;-68
2023/06/27 08:54:12;;;;;;;5.77;1.53;;;;;;;27.17;33.17;96998.06;4976722;28;20043;-67
2023/06/27 08:56:38;;;;;;;8.38;1.65;;;;;;;27.26;33.42;96992.41;4989179;28;20377;-71
2023/06/27 08:59:09;;;;;;;7.63;1.65;;;;;;;27.85;33.17;96992.88;4978622;28;20062;-66
2023/06/27 09:01:38;;;;;;;6.22;3.25;;;;;;;28.32;32.12;97001.13;4964890;28;20108;-72
2023/06/27 09:04:04;;;;;;;7.88;2.47;;;;;;;28.18;31.90;96997.75;4979908;28;20042;-66
2023/06/27 09:06:29;;;;;;;6.75;2.33;;;;;;;28.32;31.44;96998.31;4980701;28;20049;-71
2023/06/27 09:08:55;;;;;;;4.65;1.48;;;;;;;28.45;31.61;97000.88;4982091;28;20046;-70
2023/06/27 09:11:21;;;;;;;6.70;1.77;;;;;;;27.82;32.99;97004.31;4977860;28;20042;-71
2023/06/27 09:13:46;;;;;;;4.88;1.50;;;;;;;27.49;32.80;96993.03;4981582;28;20043;-70
2023/06/27 09:16:13;;;;;;;6.50;1.83;;;;;;;27.75;33.18;96990.56;4976076;28;20057;-69
2023/06/27 09:18:39;;;;;;;5.93;1.67;;;;;;;27.81;32.93;96988.69;4981482;28;20050;-69
2023/06/27 09:21:04;;;;;;;6.55;1.70;;;;;;;28.31;32.79;96985.50;4977098;28;20393;-66
2023/06/27 09:23:30;;;;;;;4.43;1.85;;;;;;;27.98;32.67;96987.09;4981547;28;20057;-71
2023/06/27 09:26:09;;;;;;;5.15;1.80;;;;;;;26.88;34.92;96988.09;4982107;28;20121;-72
2023/06/27 09:28:45;;;;;;;6.55;2.00;;;;;;;27.13;34.71;96986.97;4981317;28;20078;-70
2023/06/27 09:31:13;;;;;;;10.25;2.30;;;;;;;27.69;32.95;96984.81;4976301;28;20132;-68
2023/06/27 09:33:39;;;;;;;6.10;1.88;;;;;;;27.43;33.33;96976.78;4963632;28;20594;-70
2023/06/27 09:36:04;;;;;;;4.68;1.50;;;;;;;26.52;35.19;96976.38;4977032;28;20054;-66
2023/06/27 09:38:31;;;;;;;6.70;2.00;;;;;;;27.27;33.97;96963.84;4980599;28;20042;-70
2023/06/27 09:41:03;;;;;;;7.30;2.20;;;;;;;27.75;33.68;96966.06;4981875;28;20043;-71
2023/06/27 09:43:35;;;;;;;6.82;1.77;;;;;;;27.58;34.40;96974.06;4962148;28;20038;-69
2023/06/27 09:46:03;;;;;;;5.38;1.75;;;;;;;27.11;35.13;96977.47;4982689;28;20385;-69
2023/06/27 09:48:29;;;;;;;6.47;2.30;;;;;;;27.00;34.84;96977.94;4947194;28;20050;-71
2023/06/27 09:51:03;;;;;;;6.97;1.83;;;;;;;26.85;34.34;96970.16;4981303;28;20109;-70
2023/06/27 09:53:30;;;;;;;8.40;1.92;;;;;;;27.46;33.39;96970.22;4979963;28;20038;-70
2023/06/27 09:55:59;;;;;;;6.50;1.70;;;;;;;27.63;33.71;96967.03;4984876;28;20050;-70
2023/06/27 09:58:26;;;;;;;5.40;1.80;;;;;;;27.46;33.67;96977.88;4994724;28;20045;-70
2023/06/27 10:00:51;;;;;;;4.85;1.63;;;;;;;27.59;31.86;96983.31;5005208;28;20042;-71
2023/06/27 10:03:20;;;;;;;5.90;1.90;;;;;;;26.53;33.60;96979.97;4999734;28;20053;-70
2023/06/27 10:05:46;;;;;;;5.78;1.95;;;;;;;26.11;34.44;96970.06;4988215;28;20050;-69
2023/06/27 10:08:11;;;;;;;6.15;1.80;;;;;;;26.36;34.21;96971.03;4999391;28;20112;-70
2023/06/27 10:10:37;;;;;;;6.43;1.75;;;;;;;26.80;34.21;96976.41;5004101;28;20038;-70
2023/06/27 10:13:03;;;;;;;8.10;2.00;;;;;;;27.16;33.53;96969.16;5001370;28;20034;-65
2023/06/27 10:15:29;;;;;;;9.98;2.03;;;;;;;27.37;32.76;96964.63;4982244;28;20054;-70
2023/06/27 10:17:55;;;;;;;4.18;1.63;;;;;;;27.76;32.53;96953.53;4986033;28;20073;-70
2023/06/27 10:20:21;;;;;;;4.63;1.55;;;;;;;27.78;32.34;96953.81;4980757;28;20069;-68
2023/06/27 10:22:47;;;;;;;8.73;2.13;;;;;;;28.32;31.55;96954.00;4985641;28;20042;-70
2023/06/27 10:25:13;;;;;;;8.20;1.90;;;;;;;27.60;33.28;96949.09;4979102;28;20049;-72
2023/06/27 10:27:39;;;;;;;6.80;2.95;;;;;;;26.45;35.04;96950.59;4983829;28;20046;-70
2023/06/27 10:30:13;;;;;;;5.80;2.00;;;;;;;26.95;34.63;96942.03;4979330;28;20542;-72
2023/06/27 10:32:44;;;;;;;9.13;2.95;;;;;;;27.19;34.12;96959.00;4983585;28;20504;-72
2023/06/27 10:35:12;;;;;;;6.32;1.65;;;;;;;27.58;33.56;96945.94;4979512;28;20104;-70
2023/06/27 10:37:40;;;;;;;5.03;1.60;;;;;;;28.02;33.21;96941.88;4984064;28;20105;-71
2023/06/27 10:40:08;;;;;;;5.45;2.20;;;;;;;27.73;33.23;96950.88;4979712;28;20038;-69
2023/06/27 10:42:33;;;;;;;6.10;1.70;;;;;;;27.66;33.22;96943.59;4983635;28;20080;-71
2023/06/27 10:45:15;;;;;;;7.25;1.80;;;;;;;26.98;34.17;96949.53;4984661;28;20042;-72
2023/06/27 10:47:43;;;;;;;7.55;2.03;;;;;;;27.46;33.15;96942.09;4983422;28;20046;-71
2023/06/27 10:50:22;;;;;;;5.97;1.80;;;;;;;27.88;31.94;96942.53;4979380;28;20061;-72
2023/06/27 10:53:05;;;;;;;4.60;1.60;;;;;;;27.57;32.13;96947.22;4984226;28;20039;-71
2023/06/27 10:55:32;;;;;;;5.68;2.03;;;;;;;28.33;31.41;96949.16;4988454;28;20136;-72
2023/06/27 10:58:09;;;;;;;7.82;2.00;;;;;;;28.38;31.50;96945.69;4990057;28;20447;-69
2023/06/27 11:00:41;;;;;;;7.80;1.95;;;;;;;27.84;32.46;96954.75;4982985;28;20129;-72
2023/06/27 11:03:08;;;;;;;3.88;2.00;;;;;;;27.92;32.11;96943.94;4978341;28;20042;-73
2023/06/27 11:05:37;;;;;;;7.28;1.90;;;;;;;28.20;31.62;96935.34;4984390;28;20081;-72
2023/06/27 11:08:03;;;;;;;8.00;2.03;;;;;;;28.27;31.78;96942.63;4982789;28;20050;-67
2023/06/27 11:10:29;;;;;;;6.32;2.00;;;;;;;28.18;31.68;96949.91;4965411;28;20046;-71
2023/06/27 11:13:15;;;;;;;5.65;2.15;;;;;;;28.04;31.13;96942.16;4985052;28;20104;-71
2023/06/27 11:15:42;;;;;;;9.20;2.00;;;;;;;27.72;32.18;96949.34;4989424;28;20160;-71
2023/06/27 11:18:08;;;;;;;5.93;1.77;;;;;;;28.11;31.11;96941.81;4981558;28;20042;-71
2023/06/27 11:20:35;;;;;;;8.40;2.03;;;;;;;27.80;31.49;96942.88;4985066;28;20061;-71
2023/06/27 11:23:03;;;;;;;5.80;2.40;;;;;;;28.07;31.54;96935.56;4985313;28;20034;-71
2023/06/27 11:25:35;;;;;;;5.50;2.00;;;;;;;27.96;30.80;96941.72;4964167;28;20042;-71
2023/06/27 11:28:00;;;;;;;5.35;2.00;;;;;;;27.79;30.42;96934.91;4984651;28;20057;-70
2023/06/27 11:30:27;;;;;;;5.93;1.70;;;;;;;27.78;30.64;96939.75;4962958;28;20133;-70
2023/06/27 11:32:56;;;;;;;5.47;2.00;;;;;;;28.20;30.33;96933.28;4985678;28;20120;-70